sensor_id;sensor_type;location;lat;lon;timestamp;P1;durP1;ratioP1;P2;durP2;ratioP2
29162;SDS011;20331;53.144;8.208;2022-08-04T00:06:02;32.88;;;10.15;;
29162;SDS011;20331;53.144;8.208;2022-08-04T00:16:25;31.38;;;10.57;;
29162;SDS011;20331;53.144;8.208;2022-08-04T00:26:58;25.48;;;10.63;;
29162;SDS011;20331;53.144;8.208;2022-08-04T00:37:20;20.77;;;10.05;;
29162;SDS011;20331;53.144;8.208;2022-08-04T00:47:48;25.27;;;10.25;;
29162;SDS011;20331;53.144;8.208;2022-08-04T01:19:40;39.55;;;20.08;;
29162;SDS011;20331;53.144;8.208;2022-08-04T01:30:19;32.22;;;14.27;;
29162;SDS011;20331;53.144;8.208;2022-08-04T01:40:40;30.35;;;11.32;;
29162;SDS011;20331;53.144;8.208;2022-08-04T01:51:05;27.27;;;11.32;;
29162;SDS011;20331;53.144;8.208;2022-08-04T02:01:28;22.42;;;10.05;;
29162;SDS011;20331;53.144;8.208;2022-08-04T02:12:03;19.98;;;9.85;;
29162;SDS011;20331;53.144;8.208;2022-08-04T02:22:42;23.58;;;10.05;;
29162;SDS011;20331;53.144;8.208;2022-08-04T02:33:18;23.30;;;9.73;;
29162;SDS011;20331;53.144;8.208;2022-08-04T02:43:46;22.93;;;8.90;;
29162;SDS011;20331;53.144;8.208;2022-08-04T02:54:14;21.95;;;9.05;;
29162;SDS011;20331;53.144;8.208;2022-08-04T03:04:57;22.42;;;10.20;;
29162;SDS011;20331;53.144;8.208;2022-08-04T03:58:58;17.20;;;7.70;;
29162;SDS011;20331;53.144;8.208;2022-08-04T04:42:06;17.02;;;7.22;;
29162;SDS011;20331;53.144;8.208;2022-08-04T05:14:51;17.40;;;5.47;;
29162;SDS011;20331;53.144;8.208;2022-08-04T05:25:20;16.23;;;5.00;;
29162;SDS011;20331;53.144;8.208;2022-08-04T05:35:47;14.38;;;3.97;;
29162;SDS011;20331;53.144;8.208;2022-08-04T05:46:32;13.35;;;3.80;;
29162;SDS011;20331;53.144;8.208;2022-08-04T05:56:53;12.38;;;3.65;;
29162;SDS011;20331;53.144;8.208;2022-08-04T06:07:17;13.07;;;3.15;;
29162;SDS011;20331;53.144;8.208;2022-08-04T06:17:39;14.63;;;2.85;;
29162;SDS011;20331;53.144;8.208;2022-08-04T06:28:26;12.75;;;3.08;;
29162;SDS011;20331;53.144;8.208;2022-08-04T06:38:55;11.98;;;3.25;;
29162;SDS011;20331;53.144;8.208;2022-08-04T06:49:19;13.30;;;3.20;;
29162;SDS011;20331;53.144;8.208;2022-08-04T06:59:43;9.57;;;3.00;;
29162;SDS011;20331;53.144;8.208;2022-08-04T07:10:07;8.00;;;2.53;;
29162;SDS011;20331;53.144;8.208;2022-08-04T07:20:30;9.73;;;2.67;;
29162;SDS011;20331;53.144;8.208;2022-08-04T07:30:56;10.27;;;2.20;;
29162;SDS011;20331;53.144;8.208;2022-08-04T07:41:19;7.72;;;2.13;;
29162;SDS011;20331;53.144;8.208;2022-08-04T07:51:59;5.55;;;1.60;;
29162;SDS011;20331;53.144;8.208;2022-08-04T08:02:22;9.05;;;1.80;;
29162;SDS011;20331;53.144;8.208;2022-08-04T08:12:44;10.82;;;2.05;;
29162;SDS011;20331;53.144;8.208;2022-08-04T08:23:12;3.15;;;1.70;;
29162;SDS011;20331;53.144;8.208;2022-08-04T08:33:34;5.65;;;1.75;;
29162;SDS011;20331;53.144;8.208;2022-08-04T08:55:16;5.78;;;1.52;;
29162;SDS011;20331;53.144;8.208;2022-08-04T09:17:02;5.15;;;1.83;;
29162;SDS011;20331;53.144;8.208;2022-08-04T09:27:34;6.80;;;1.75;;
29162;SDS011;20331;53.144;8.208;2022-08-04T09:48:41;10.27;;;2.17;;
29162;SDS011;20331;53.144;8.208;2022-08-04T09:59:42;7.45;;;2.20;;
29162;SDS011;20331;53.144;8.208;2022-08-04T10:31:20;9.57;;;1.40;;
29162;SDS011;20331;53.144;8.208;2022-08-04T10:41:55;3.53;;;1.58;;
29162;SDS011;20331;53.144;8.208;2022-08-04T10:52:35;1.60;;;1.48;;
29162;SDS011;20331;53.144;8.208;2022-08-04T11:14:13;5.40;;;1.77;;
29162;SDS011;20331;53.144;8.208;2022-08-04T11:35:10;6.97;;;2.00;;
29162;SDS011;20331;53.144;8.208;2022-08-04T11:45:41;5.75;;;1.80;;
29162;SDS011;20331;53.144;8.208;2022-08-04T11:56:11;3.78;;;1.70;;
29162;SDS011;20331;53.144;8.208;2022-08-04T12:39:14;7.53;;;2.22;;
29162;SDS011;20331;53.144;8.208;2022-08-04T12:49:38;4.72;;;2.40;;
29162;SDS011;20331;53.144;8.208;2022-08-04T13:00:23;9.55;;;2.63;;
29162;SDS011;20331;53.144;8.208;2022-08-04T13:10:56;13.15;;;2.40;;
29162;SDS011;20331;53.144;8.208;2022-08-04T13:21:20;9.15;;;2.28;;
29162;SDS011;20331;53.144;8.208;2022-08-04T13:32:04;8.68;;;1.80;;
29162;SDS011;20331;53.144;8.208;2022-08-04T13:42:26;7.32;;;2.10;;
29162;SDS011;20331;53.144;8.208;2022-08-04T13:52:53;8.15;;;2.20;;
29162;SDS011;20331;53.144;8.208;2022-08-04T14:14:27;3.55;;;1.80;;
29162;SDS011;20331;53.144;8.208;2022-08-04T14:25:07;3.60;;;1.90;;
29162;SDS011;20331;53.144;8.208;2022-08-04T14:35:37;7.55;;;2.15;;
29162;SDS011;20331;53.144;8.208;2022-08-04T14:46:11;7.00;;;1.70;;
29162;SDS011;20331;53.144;8.208;2022-08-04T14:56:33;6.05;;;1.63;;
29162;SDS011;20331;53.144;8.208;2022-08-04T15:07:07;4.97;;;1.30;;
29162;SDS011;20331;53.144;8.208;2022-08-04T15:17:30;2.08;;;1.33;;
29162;SDS011;20331;53.144;8.208;2022-08-04T15:27:52;3.10;;;1.00;;
29162;SDS011;20331;53.144;8.208;2022-08-04T15:38:28;2.03;;;1.17;;
29162;SDS011;20331;53.144;8.208;2022-08-04T15:48:57;2.25;;;1.08;;
29162;SDS011;20331;53.144;8.208;2022-08-04T15:59:55;2.17;;;1.08;;
29162;SDS011;20331;53.144;8.208;2022-08-04T16:20:55;1.95;;;0.90;;
29162;SDS011;20331;53.144;8.208;2022-08-04T16:31:18;1.58;;;1.05;;
29162;SDS011;20331;53.144;8.208;2022-08-04T16:41:40;11.73;;;1.60;;
29162;SDS011;20331;53.144;8.208;2022-08-04T16:52:04;4.13;;;1.25;;
29162;SDS011;20331;53.144;8.208;2022-08-04T17:02:33;1.70;;;0.80;;
29162;SDS011;20331;53.144;8.208;2022-08-04T17:12:56;2.10;;;0.98;;
29162;SDS011;20331;53.144;8.208;2022-08-04T17:23:39;1.70;;;0.90;;
29162;SDS011;20331;53.144;8.208;2022-08-04T17:34:24;3.00;;;1.10;;
29162;SDS011;20331;53.144;8.208;2022-08-04T17:44:46;4.97;;;1.33;;
29162;SDS011;20331;53.144;8.208;2022-08-04T17:55:10;3.88;;;1.40;;
29162;SDS011;20331;53.144;8.208;2022-08-04T18:05:38;5.05;;;1.60;;
29162;SDS011;20331;53.144;8.208;2022-08-04T18:16:19;9.68;;;2.00;;
29162;SDS011;20331;53.144;8.208;2022-08-04T18:26:43;7.68;;;2.40;;
29162;SDS011;20331;53.144;8.208;2022-08-04T18:37:06;12.60;;;2.50;;
29162;SDS011;20331;53.144;8.208;2022-08-04T18:47:48;11.70;;;3.20;;
29162;SDS011;20331;53.144;8.208;2022-08-04T18:58:19;14.10;;;3.30;;
29162;SDS011;20331;53.144;8.208;2022-08-04T19:08:48;10.10;;;2.65;;
29162;SDS011;20331;53.144;8.208;2022-08-04T19:19:09;11.15;;;3.00;;
29162;SDS011;20331;53.144;8.208;2022-08-04T19:29:32;8.80;;;2.58;;
29162;SDS011;20331;53.144;8.208;2022-08-04T19:40:02;7.43;;;2.70;;
29162;SDS011;20331;53.144;8.208;2022-08-04T19:50:25;7.20;;;3.10;;
29162;SDS011;20331;53.144;8.208;2022-08-04T20:00:47;5.90;;;3.10;;
29162;SDS011;20331;53.144;8.208;2022-08-04T20:11:11;7.15;;;4.75;;
29162;SDS011;20331;53.144;8.208;2022-08-04T20:21:36;8.48;;;5.13;;
29162;SDS011;20331;53.144;8.208;2022-08-04T20:32:17;11.20;;;5.72;;
29162;SDS011;20331;53.144;8.208;2022-08-04T20:42:45;9.67;;;5.63;;
29162;SDS011;20331;53.144;8.208;2022-08-04T20:53:08;10.30;;;4.47;;
29162;SDS011;20331;53.144;8.208;2022-08-04T21:03:37;8.20;;;3.80;;
29162;SDS011;20331;53.144;8.208;2022-08-04T21:14:21;11.68;;;3.13;;
29162;SDS011;20331;53.144;8.208;2022-08-04T21:24:49;8.00;;;2.58;;
29162;SDS011;20331;53.144;8.208;2022-08-04T21:35:11;6.68;;;2.50;;
29162;SDS011;20331;53.144;8.208;2022-08-04T21:45:36;7.22;;;2.35;;
29162;SDS011;20331;53.144;8.208;2022-08-04T21:55:57;7.60;;;2.63;;
29162;SDS011;20331;53.144;8.208;2022-08-04T22:06:27;4.97;;;2.40;;
29162;SDS011;20331;53.144;8.208;2022-08-04T22:16:49;4.75;;;2.60;;
29162;SDS011;20331;53.144;8.208;2022-08-04T22:27:14;7.18;;;2.70;;
29162;SDS011;20331;53.144;8.208;2022-08-04T22:37:56;5.20;;;2.85;;
29162;SDS011;20331;53.144;8.208;2022-08-04T22:48:38;7.07;;;2.50;;
29162;SDS011;20331;53.144;8.208;2022-08-04T22:59:03;5.22;;;2.47;;
29162;SDS011;20331;53.144;8.208;2022-08-04T23:09:25;5.40;;;2.25;;
29162;SDS011;20331;53.144;8.208;2022-08-04T23:20:07;6.03;;;2.25;;
29162;SDS011;20331;53.144;8.208;2022-08-04T23:30:49;4.93;;;2.38;;
29162;SDS011;20331;53.144;8.208;2022-08-04T23:41:14;6.07;;;2.05;;
29162;SDS011;20331;53.144;8.208;2022-08-04T23:51:37;6.78;;;2.00;;
